Time;durP1;ratioP1;P1;durP2;ratioP2;P2;SDS_P1;SDS_P2;PMS_P1;PMS_P2;Temp;Humidity;BMP_temperature;BMP_pressure;BME280_temperature;BME280_humidity;BME280_pressure;Samples;Min_cycle;Max_cycle;Signal;HPM_P1;HPM_P2
2022/10/17 00:01:23;;;;;;;5.90;5.07;;;17.20;99.90;;;;;;5050118;28;20226;-32
2022/10/17 00:03:51;;;;;;;5.30;4.80;;;17.20;99.90;;;;;;5049990;28;20899;-31
2022/10/17 00:06:18;;;;;;;7.03;4.93;;;17.20;99.90;;;;;;5049702;28;20204;-32
2022/10/17 00:08:45;;;;;;;6.27;5.23;;;17.20;99.90;;;;;;5049858;28;20642;-32
2022/10/17 00:11:16;;;;;;;6.10;4.53;;;17.20;99.90;;;;;;5049806;28;20219;-31
2022/10/17 00:13:44;;;;;;;7.10;5.40;;;17.20;99.90;;;;;;5049600;28;20216;-33
2022/10/17 00:16:12;;;;;;;6.20;5.20;;;17.20;99.90;;;;;;5049708;28;20204;-32
2022/10/17 00:18:41;;;;;;;5.90;5.20;;;17.20;99.90;;;;;;5049341;28;20228;-33
2022/10/17 00:21:16;;;;;;;7.40;5.27;;;17.20;99.90;;;;;;5049624;28;20192;-32
2022/10/17 00:23:44;;;;;;;8.17;5.30;;;17.20;99.90;;;;;;5049606;28;20207;-33
2022/10/17 00:26:12;;;;;;;5.70;5.10;;;17.20;99.90;;;;;;5048507;28;20601;-32
2022/10/17 00:28:39;;;;;;;6.90;5.37;;;17.20;99.90;;;;;;5049636;28;20200;-32
2022/10/17 00:31:09;;;;;;;8.87;5.40;;;17.20;99.90;;;;;;5049755;28;20169;-32
2022/10/17 00:33:39;;;;;;;6.57;5.13;;;17.20;99.90;;;;;;5049462;28;20548;-32
2022/10/17 00:36:12;;;;;;;5.77;5.27;;;17.10;99.90;;;;;;5031550;28;20196;-32
2022/10/17 00:38:41;;;;;;;8.60;5.80;;;17.20;99.90;;;;;;5049421;28;20282;-32
2022/10/17 00:41:15;;;;;;;6.47;5.50;;;17.20;99.90;;;;;;5048217;28;20597;-32
2022/10/17 00:44:00;;;;;;;6.17;5.33;;;17.20;99.90;;;;;;5049242;28;20189;-32
2022/10/17 00:46:37;;;;;;;6.20;5.10;;;17.20;99.90;;;;;;5049530;28;20274;-32
2022/10/17 00:49:10;;;;;;;5.40;4.90;;;17.20;99.90;;;;;;5049147;28;20210;-33
2022/10/17 00:51:48;;;;;;;5.47;4.97;;;17.20;99.90;;;;;;5049111;28;20215;-32
2022/10/17 00:54:18;;;;;;;7.63;5.43;;;17.20;99.90;;;;;;5049518;28;20212;-33
2022/10/17 00:56:46;;;;;;;6.43;5.67;;;17.10;99.90;;;;;;5049483;28;20195;-32
2022/10/17 00:59:16;;;;;;;7.90;5.47;;;17.10;99.90;;;;;;5047739;28;20214;-32
2022/10/17 01:02:02;;;;;;;5.63;5.03;;;17.10;99.90;;;;;;5048497;28;20466;-32
2022/10/17 01:04:29;;;;;;;7.53;5.37;;;17.10;99.90;;;;;;5048683;28;20192;-32
2022/10/17 01:06:57;;;;;;;5.97;5.37;;;17.10;99.90;;;;;;5048560;28;20210;-32
2022/10/17 01:09:25;;;;;;;5.73;5.20;;;17.10;99.90;;;;;;5048402;28;20548;-32
2022/10/17 01:12:13;;;;;;;7.87;5.47;;;17.10;99.90;;;;;;5053687;28;20203;-33
2022/10/17 01:15:06;;;;;;;7.13;5.37;;;17.10;99.90;;;;;;5052552;28;20690;-32
2022/10/17 01:17:39;;;;;;;7.33;4.87;;;17.10;99.90;;;;;;5057790;28;20320;-33
2022/10/17 01:20:25;;;;;;;7.70;5.60;;;17.00;99.90;;;;;;5050180;28;20207;-32
2022/10/17 01:23:20;;;;;;;7.37;5.30;;;17.00;99.90;;;;;;5048203;28;20208;-32
2022/10/17 01:26:36;;;;;;;6.27;5.63;;;17.00;99.90;;;;;;5056047;28;20222;-32
2022/10/17 01:29:23;;;;;;;6.67;5.80;;;17.00;99.90;;;;;;5060183;28;20239;-33
2022/10/17 01:32:12;;;;;;;7.27;5.30;;;17.00;99.90;;;;;;5048190;28;20262;-32
2022/10/17 01:34:56;;;;;;;6.13;5.53;;;17.00;99.90;;;;;;5047986;28;20216;-32
2022/10/17 01:37:34;;;;;;;7.20;5.20;;;17.00;99.90;;;;;;5047843;28;20195;-32
2022/10/17 01:40:24;;;;;;;7.63;5.27;;;17.00;99.90;;;;;;5048309;28;20192;-32
2022/10/17 01:43:16;;;;;;;7.80;5.30;;;16.90;99.90;;;;;;5048616;28;20188;-32
2022/10/17 01:45:59;;;;;;;7.40;5.60;;;16.90;99.90;;;;;;5048294;28;20223;-32
2022/10/17 01:48:34;;;;;;;6.60;5.17;;;16.90;99.90;;;;;;5047886;28;20203;-32
2022/10/17 01:51:10;;;;;;;5.87;5.27;;;16.80;99.90;;;;;;5048098;28;20192;-32
2022/10/17 01:53:45;;;;;;;7.27;5.47;;;16.90;99.90;;;;;;5047749;28;20212;-32
2022/10/17 01:56:14;;;;;;;6.13;5.40;;;16.90;99.90;;;;;;5048478;28;20571;-32
2022/10/17 01:58:51;;;;;;;6.53;5.00;;;16.90;99.90;;;;;;5048327;28;20675;-32
2022/10/17 02:01:20;;;;;;;5.23;4.53;;;16.90;99.90;;;;;;5047856;28;20212;-32
2022/10/17 02:03:50;;;;;;;7.03;5.10;;;16.90;99.90;;;;;;5047875;28;20261;-32
2022/10/17 02:06:19;;;;;;;7.67;5.17;;;16.90;99.90;;;;;;5047974;28;20204;-32
2022/10/17 02:08:50;;;;;;;6.37;4.87;;;17.00;99.90;;;;;;5048058;28;20205;-32
2022/10/17 02:11:22;;;;;;;7.87;4.83;;;17.00;99.90;;;;;;5046495;28;20210;-32
2022/10/17 02:14:08;;;;;;;6.50;4.87;;;17.00;99.90;;;;;;5047938;28;20294;-32
2022/10/17 02:17:03;;;;;;;4.67;4.07;;;17.00;99.90;;;;;;5048143;28;20173;-32
2022/10/17 02:19:37;;;;;;;6.17;4.43;;;17.00;99.90;;;;;;5047464;28;20235;-32
2022/10/17 02:22:12;;;;;;;6.03;4.43;;;17.00;99.90;;;;;;5048078;28;20184;-32
2022/10/17 02:25:13;;;;;;;5.33;4.33;;;17.10;99.90;;;;;;5047681;28;20206;-32
2022/10/17 02:28:00;;;;;;;7.50;4.43;;;17.10;99.90;;;;;;5047704;28;20253;-32
2022/10/17 02:30:40;;;;;;;5.90;4.43;;;17.10;99.90;;;;;;5047501;28;20631;-32
2022/10/17 02:33:10;;;;;;;5.23;4.10;;;17.10;99.90;;;;;;5047571;28;20278;-32
2022/10/17 02:35:43;;;;;;;6.97;4.63;;;17.10;99.90;;;;;;5047580;28;20250;-32
2022/10/17 02:38:14;;;;;;;7.80;4.70;;;17.20;99.90;;;;;;5047970;28;20196;-33
2022/10/17 02:40:43;;;;;;;5.27;4.07;;;17.20;99.90;;;;;;5048370;28;20201;-32
2022/10/17 02:43:13;;;;;;;6.57;4.33;;;17.20;99.90;;;;;;5047855;28;20196;-32
2022/10/17 02:45:41;;;;;;;4.73;4.10;;;17.30;99.90;;;;;;5047846;28;20220;-32
2022/10/17 02:48:39;;;;;;;7.07;4.50;;;17.30;99.90;;;;;;5047351;28;20226;-32
2022/10/17 02:51:18;;;;;;;4.83;4.33;;;17.40;99.90;;;;;;5051501;28;20695;-32
2022/10/17 02:54:10;;;;;;;5.03;4.43;;;17.40;99.90;;;;;;5051182;28;20215;-32
2022/10/17 02:56:45;;;;;;;5.80;4.50;;;17.40;99.90;;;;;;5051271;28;20427;-32
2022/10/17 02:59:16;;;;;;;4.93;4.07;;;17.50;99.90;;;;;;5051133;28;20207;-32
2022/10/17 03:01:43;;;;;;;6.60;4.17;;;17.50;99.90;;;;;;5051331;28;20588;-32
2022/10/17 03:04:13;;;;;;;6.47;4.53;;;17.50;99.90;;;;;;5051729;28;20620;-32
2022/10/17 03:06:40;;;;;;;6.50;4.43;;;17.50;99.90;;;;;;5050980;28;20294;-32
2022/10/17 03:09:08;;;;;;;4.93;4.33;;;17.60;99.90;;;;;;5050883;28;20196;-32
2022/10/17 03:11:35;;;;;;;5.50;4.17;;;17.60;99.90;;;;;;5049437;28;20208;-32
2022/10/17 03:14:05;;;;;;;7.13;4.40;;;17.70;99.90;;;;;;5050790;28;20248;-32
2022/10/17 03:16:32;;;;;;;4.40;4.00;;;17.70;99.90;;;;;;5050854;28;20189;-32
2022/10/17 03:18:59;;;;;;;7.93;4.67;;;17.80;99.90;;;;;;5050774;28;20236;-32
2022/10/17 03:21:26;;;;;;;4.60;4.20;;;17.80;99.90;;;;;;5050910;28;20219;-32
2022/10/17 03:23:53;;;;;;;6.03;4.53;;;17.90;99.90;;;;;;5051207;28;20767;-32
2022/10/17 03:26:21;;;;;;;5.90;4.00;;;18.00;99.90;;;;;;5049660;28;20200;-32
2022/10/17 03:28:48;;;;;;;4.43;4.00;;;18.00;99.90;;;;;;5051024;28;20761;-32
2022/10/17 03:31:20;;;;;;;5.93;4.30;;;18.10;99.90;;;;;;5050724;28;20305;-32
2022/10/17 03:33:48;;;;;;;6.07;4.00;;;18.10;99.90;;;;;;5049387;28;20227;-32
2022/10/17 03:36:19;;;;;;;5.40;4.33;;;18.20;99.90;;;;;;5050211;28;20203;-32
2022/10/17 03:38:47;;;;;;;5.50;4.20;;;18.20;99.90;;;;;;5049020;28;20219;-32
2022/10/17 03:41:14;;;;;;;4.30;3.73;;;18.20;99.90;;;;;;5050608;28;20204;-32
2022/10/17 03:43:41;;;;;;;5.23;4.10;;;18.30;99.90;;;;;;5050248;28;20254;-32
2022/10/17 03:46:11;;;;;;;4.83;3.90;;;18.30;99.90;;;;;;5048884;28;20212;-32
2022/10/17 03:48:43;;;;;;;5.17;3.80;;;18.40;99.90;;;;;;5050777;28;20208;-32
2022/10/17 03:51:10;;;;;;;5.00;4.47;;;18.40;99.90;;;;;;5050284;28;20250;-32
2022/10/17 03:53:38;;;;;;;4.53;4.13;;;18.50;99.90;;;;;;5050182;28;20220;-32
2022/10/17 03:56:20;;;;;;;8.20;4.67;;;18.50;99.90;;;;;;5050765;28;20540;-32
2022/10/17 03:58:47;;;;;;;6.20;4.07;;;18.50;99.90;;;;;;5050377;28;20197;-32
2022/10/17 04:01:16;;;;;;;5.10;4.03;;;18.50;99.90;;;;;;5049716;28;20760;-32
2022/10/17 04:03:47;;;;;;;5.50;4.17;;;18.60;99.90;;;;;;5050003;28;20200;-32
2022/10/17 04:06:14;;;;;;;4.47;4.07;;;18.60;99.90;;;;;;5065179;28;20639;-33
2022/10/17 04:08:41;;;;;;;6.83;4.13;;;18.60;99.90;;;;;;5050314;28;20603;-32
2022/10/17 04:11:16;;;;;;;4.30;3.90;;;18.60;99.90;;;;;;5048560;28;20213;-32
2022/10/17 04:13:44;;;;;;;4.80;3.87;;;18.60;99.90;;;;;;5049850;28;20906;-32
2022/10/17 04:16:14;;;;;;;4.77;4.27;;;18.60;99.90;;;;;;5049818;28;20206;-32
2022/10/17 04:18:44;;;;;;;4.95;3.90;;;18.70;99.90;;;;;;5049633;28;20599;-32
2022/10/17 04:21:13;;;;;;;5.80;4.05;;;18.70;99.90;;;;;;5050160;28;20204;-32
2022/10/17 04:23:41;;;;;;;4.33;3.90;;;18.70;99.90;;;;;;5049935;28;20575;-32
2022/10/17 04:26:08;;;;;;;4.83;4.40;;;18.70;99.90;;;;;;5048190;28;20200;-32
2022/10/17 04:28:37;;;;;;;6.07;4.23;;;18.70;99.90;;;;;;5049466;28;20262;-32
2022/10/17 04:31:15;;;;;;;7.67;4.03;;;18.70;99.90;;;;;;5049573;28;20204;-32
2022/10/17 04:33:43;;;;;;;9.38;4.25;;;18.70;99.90;;;;;;5049837;28;20228;-32
2022/10/17 04:36:12;;;;;;;5.70;4.20;;;18.70;99.90;;;;;;5049428;28;20773;-32
2022/10/17 04:38:40;;;;;;;5.07;4.27;;;18.70;99.90;;;;;;5049407;28;20211;-32
2022/10/17 04:41:13;;;;;;;4.45;3.90;;;18.70;99.90;;;;;;5049479;28;20192;-33
2022/10/17 04:43:44;;;;;;;6.50;4.13;;;18.80;99.90;;;;;;5049202;28;20653;-32
2022/10/17 04:46:17;;;;;;;5.30;4.20;;;18.80;99.90;;;;;;5049166;28;20208;-32
2022/10/17 04:48:44;;;;;;;6.17;4.20;;;18.70;99.90;;;;;;5064296;28;20196;-32
2022/10/17 04:51:16;;;;;;;5.70;3.83;;;18.80;99.90;;;;;;5049142;28;20204;-32
2022/10/17 04:53:49;;;;;;;4.47;3.90;;;18.80;99.90;;;;;;5048905;28;20303;-31
2022/10/17 04:56:20;;;;;;;9.43;4.10;;;18.80;99.90;;;;;;5049186;28;20277;-32
2022/10/17 04:58:50;;;;;;;6.20;4.23;;;18.80;99.90;;;;;;5049016;28;20596;-32
2022/10/17 05:01:22;;;;;;;6.05;3.80;;;18.80;99.90;;;;;;5049666;28;20207;-32
2022/10/17 05:03:52;;;;;;;5.85;3.70;;;18.80;99.90;;;;;;5049152;28;20203;-32
2022/10/17 05:06:26;;;;;;;4.90;4.40;;;18.80;99.90;;;;;;5048909;28;20223;-32
2022/10/17 05:08:54;;;;;;;4.47;4.00;;;18.80;99.90;;;;;;5048690;28;20681;-32
2022/10/17 05:11:23;;;;;;;5.93;4.37;;;18.80;99.90;;;;;;5047995;28;20212;-32
2022/10/17 05:14:01;;;;;;;4.00;3.65;;;18.90;99.90;;;;;;5048530;28;20216;-32
2022/10/17 05:16:31;;;;;;;4.77;4.13;;;18.90;99.90;;;;;;5048734;28;20177;-32
2022/10/17 05:19:01;;;;;;;5.15;4.07;;;18.90;99.90;;;;;;5046967;28;20236;-32
2022/10/17 05:21:31;;;;;;;6.15;4.15;;;18.90;99.90;;;;;;5048291;28;20250;-32
2022/10/17 05:24:07;;;;;;;6.60;4.80;;;18.90;99.90;;;;;;5048777;28;20231;-32
2022/10/17 05:26:35;;;;;;;6.40;4.40;;;18.90;99.90;;;;;;5048273;28;20218;-32
2022/10/17 05:29:03;;;;;;;6.13;4.13;;;18.90;99.90;;;;;;5048568;28;20932;-32
2022/10/17 05:31:30;;;;;;;4.13;3.78;;;19.00;99.90;;;;;;5048309;28;20207;-32
2022/10/17 05:34:04;;;;;;;7.20;4.10;;;19.00;99.90;;;;;;5048049;28;20231;-32
2022/10/17 05:36:35;;;;;;;5.60;4.20;;;19.00;99.90;;;;;;5048172;28;20215;-32
2022/10/17 05:39:04;;;;;;;5.60;4.23;;;19.00;99.90;;;;;;5048545;28;20203;-32
2022/10/17 05:41:32;;;;;;;7.32;3.95;;;19.00;99.90;;;;;;5047921;28;20583;-32
2022/10/17 05:43:59;;;;;;;5.97;4.50;;;19.00;99.90;;;;;;5048310;28;20679;-32
2022/10/17 05:46:34;;;;;;;6.77;3.70;;;19.00;99.90;;;;;;5047994;28;20317;-32
2022/10/17 05:49:04;;;;;;;5.47;3.90;;;19.00;99.90;;;;;;5047865;28;20200;-32
2022/10/17 05:51:45;;;;;;;6.07;4.00;;;19.00;99.90;;;;;;5048083;28;20196;-32
2022/10/17 05:54:12;;;;;;;5.57;3.90;;;19.00;99.90;;;;;;5047879;28;20220;-32
2022/10/17 05:56:39;;;;;;;8.90;3.77;;;19.00;99.90;;;;;;5048086;28;20222;-32
2022/10/17 05:59:06;;;;;;;4.97;3.70;;;19.10;99.90;;;;;;5047868;28;20196;-32
2022/10/17 06:01:34;;;;;;;7.80;4.13;;;19.00;99.90;;;;;;5048191;28;20203;-32
2022/10/17 06:04:01;;;;;;;7.57;4.28;;;19.10;99.90;;;;;;5047819;28;20303;-32
2022/10/17 06:06:28;;;;;;;6.47;4.15;;;19.10;99.90;;;;;;5047711;28;20723;-32
2022/10/17 06:08:55;;;;;;;5.37;4.30;;;19.10;99.90;;;;;;5047996;28;20541;-33
2022/10/17 06:11:22;;;;;;;7.13;4.37;;;19.10;99.90;;;;;;5047813;28;20211;-33
2022/10/17 06:13:50;;;;;;;5.23;4.17;;;19.10;99.90;;;;;;5047595;28;20302;-31
2022/10/17 06:16:17;;;;;;;5.90;3.77;;;19.10;99.90;;;;;;5047445;28;20307;-31
2022/10/17 06:18:44;;;;;;;7.03;3.92;;;19.20;99.90;;;;;;5047374;28;20228;-33
2022/10/17 06:21:16;;;;;;;5.43;3.78;;;19.20;99.90;;;;;;5047495;28;20196;-32
2022/10/17 06:23:43;;;;;;;7.85;4.20;;;19.20;99.90;;;;;;5050252;28;20211;-31
2022/10/17 06:26:12;;;;;;;6.27;4.00;;;19.20;99.90;;;;;;5051506;28;20763;-33
2022/10/17 06:28:42;;;;;;;4.68;4.07;;;19.20;99.90;;;;;;5051616;28;20712;-32
2022/10/17 06:31:15;;;;;;;5.10;3.73;;;19.20;99.90;;;;;;5050046;28;20308;-33
2022/10/17 06:33:42;;;;;;;6.43;3.80;;;19.30;99.90;;;;;;5051711;28;20187;-32
2022/10/17 06:36:12;;;;;;;8.20;4.03;;;19.30;99.90;;;;;;5050133;28;20698;-33
2022/10/17 06:38:40;;;;;;;6.40;4.18;;;19.30;99.90;;;;;;5051526;28;20226;-33
2022/10/17 06:41:12;;;;;;;7.30;4.33;;;19.30;99.90;;;;;;5049950;28;20196;-33
2022/10/17 06:43:47;;;;;;;7.03;4.68;;;19.30;99.90;;;;;;5051254;28;20204;-32
2022/10/17 06:46:16;;;;;;;5.90;3.80;;;19.40;99.90;;;;;;5051349;28;20670;-32
2022/10/17 06:48:46;;;;;;;5.87;3.63;;;19.40;99.90;;;;;;5050910;28;20216;-33
2022/10/17 06:51:15;;;;;;;5.78;3.72;;;19.40;99.90;;;;;;5050833;28;20200;-32
2022/10/17 06:53:43;;;;;;;9.10;4.10;;;19.40;99.90;;;;;;5051014;28;20219;-33
2022/10/17 06:56:10;;;;;;;6.95;3.80;;;19.40;99.90;;;;;;5050928;28;20224;-31
2022/10/17 06:58:40;;;;;;;7.60;3.97;;;19.40;99.90;;;;;;5066085;28;20592;-32
2022/10/17 07:01:10;;;;;;;9.05;4.47;;;19.50;99.90;;;;;;5051025;28;20204;-32
2022/10/17 07:03:39;;;;;;;9.02;4.40;;;19.50;99.90;;;;;;5050959;28;21059;-31
2022/10/17 07:06:06;;;;;;;9.00;4.25;;;19.60;99.90;;;;;;5050731;28;20204;-32
2022/10/17 07:08:33;;;;;;;7.53;3.63;;;19.60;99.90;;;;;;5051018;28;20632;-33
2022/10/17 07:11:16;;;;;;;4.82;3.63;;;19.60;99.90;;;;;;5050846;28;20744;-32
2022/10/17 07:13:46;;;;;;;6.57;3.87;;;19.70;99.90;;;;;;5050958;28;20210;-32
2022/10/17 07:16:14;;;;;;;4.93;3.40;;;19.70;99.90;;;;;;5050602;28;20706;-33
2022/10/17 07:18:42;;;;;;;5.28;4.00;;;19.80;99.90;;;;;;5050446;28;20676;-33
2022/10/17 07:21:12;;;;;;;5.00;3.55;;;19.80;99.90;;;;;;5048907;28;20202;-32
2022/10/17 07:23:40;;;;;;;6.07;3.92;;;19.90;99.90;;;;;;5050580;28;20295;-32
2022/10/17 07:26:10;;;;;;;7.70;3.70;;;19.90;99.90;;;;;;5050514;28;20652;-33
2022/10/17 07:28:40;;;;;;;6.70;4.10;;;20.00;99.90;;;;;;5050649;28;20192;-32
2022/10/17 07:31:10;;;;;;;6.50;3.63;;;20.00;99.90;;;;;;5050745;28;20728;-33
2022/10/17 07:33:40;;;;;;;4.90;3.47;;;20.00;99.90;;;;;;5051080;28;20561;-32
2022/10/17 07:36:08;;;;;;;5.45;3.50;;;20.10;99.90;;;;;;5049700;28;20228;-32
2022/10/17 07:38:35;;;;;;;5.95;3.78;;;20.10;99.90;;;;;;5050100;28;20306;-32
2022/10/17 07:41:05;;;;;;;9.55;3.80;;;20.10;99.90;;;;;;5050056;28;20196;-32
2022/10/17 07:43:33;;;;;;;8.02;4.32;;;20.10;99.90;;;;;;5048574;28;20212;-32
2022/10/17 07:46:01;;;;;;;6.93;3.80;;;20.10;99.90;;;;;;5050005;28;20208;-33
2022/10/17 07:48:31;;;;;;;9.32;4.40;;;20.20;99.90;;;;;;5064727;28;20207;-31
2022/10/17 07:51:01;;;;;;;20.70;5.28;;;20.20;99.90;;;;;;5050105;28;20204;-33
2022/10/17 07:53:29;;;;;;;13.50;5.82;;;20.20;99.90;;;;;;5049915;28;20212;-32
2022/10/17 07:55:56;;;;;;;18.70;5.25;;;20.20;99.90;;;;;;5048439;28;20917;-32
2022/10/17 07:58:24;;;;;;;10.32;4.68;;;20.20;99.90;;;;;;5049981;28;20196;-32
2022/10/17 08:00:52;;;;;;;8.02;4.13;;;20.20;99.90;;;;;;5050114;28;20606;-33
2022/10/17 08:03:19;;;;;;;7.13;4.50;;;20.20;99.90;;;;;;5049999;28;20279;-32
2022/10/17 08:05:46;;;;;;;8.73;4.60;;;20.20;99.90;;;;;;5050135;28;20250;-33
2022/10/17 08:08:13;;;;;;;8.57;4.57;;;20.20;99.90;;;;;;5049775;28;20636;-32
2022/10/17 08:10:41;;;;;;;11.05;4.40;;;20.20;99.90;;;;;;5049873;28;20220;-33
2022/10/17 08:13:08;;;;;;;5.47;3.90;;;20.20;99.90;;;;;;5048312;28;20227;-32
2022/10/17 08:15:37;;;;;;;5.15;4.00;;;20.20;99.90;;;;;;5049895;28;20224;-33
2022/10/17 08:18:04;;;;;;;8.52;3.80;;;20.30;99.90;;;;;;5049499;28;20243;-31
2022/10/17 08:20:32;;;;;;;5.97;3.70;;;20.30;99.90;;;;;;5049576;28;20397;-32
2022/10/17 08:22:59;;;;;;;6.88;4.30;;;20.30;99.90;;;;;;5049495;28;20212;-32
2022/10/17 08:25:26;;;;;;;9.73;4.32;;;20.30;99.90;;;;;;5049438;28;20206;-33
2022/10/17 08:27:54;;;;;;;10.32;4.72;;;20.30;99.90;;;;;;5049479;28;20208;-32
2022/10/17 08:30:23;;;;;;;8.98;4.75;;;20.30;99.90;;;;;;5049354;28;20208;-32
2022/10/17 08:32:51;;;;;;;14.75;6.38;;;20.30;99.90;;;;;;5049270;28;20659;-32
2022/10/17 08:35:20;;;;;;;18.25;6.10;;;20.30;99.90;;;;;;5047829;28;20228;-32
2022/10/17 08:37:49;;;;;;;21.35;6.75;;;20.30;99.90;;;;;;5048981;28;20196;-32
2022/10/17 08:40:25;;;;;;;17.65;5.32;;;20.30;99.90;;;;;;5049602;28;20626;-32
2022/10/17 08:43:28;;;;;;;10.25;4.55;;;20.30;99.90;;;;;;5047746;28;20203;-33
2022/10/17 08:46:05;;;;;;;7.43;4.35;;;20.30;99.90;;;;;;5048394;28;20227;-32
2022/10/17 08:48:38;;;;;;;6.00;3.72;;;20.30;99.90;;;;;;5048835;28;20262;-32
2022/10/17 08:51:23;;;;;;;10.77;4.80;;;20.20;99.90;;;;;;5047830;28;20204;-32
2022/10/17 08:54:15;;;;;;;7.90;5.15;;;20.30;99.90;;;;;;5049034;28;20612;-32
2022/10/17 08:56:45;;;;;;;8.60;4.75;;;20.30;99.90;;;;;;5049007;28;20714;-32
2022/10/17 08:59:27;;;;;;;9.63;5.30;;;20.20;99.90;;;;;;5048948;28;20184;-32
2022/10/17 09:02:21;;;;;;;11.68;4.78;;;20.30;99.90;;;;;;5031236;28;20218;-32
2022/10/17 09:05:13;;;;;;;10.07;4.45;;;20.30;99.90;;;;;;5048745;28;20200;-32
2022/10/17 09:08:07;;;;;;;9.38;4.45;;;20.30;99.90;;;;;;5048908;28;20193;-32
2022/10/17 09:10:54;;;;;;;7.47;4.82;;;20.30;99.90;;;;;;5047751;28;20557;-32
2022/10/17 09:13:52;;;;;;;13.43;5.35;;;20.30;99.90;;;;;;5048712;28;20243;-32
2022/10/17 09:16:48;;;;;;;5.93;4.28;;;20.30;99.90;;;;;;5048882;28;20204;-32
2022/10/17 09:19:41;;;;;;;7.40;5.03;;;20.30;99.90;;;;;;5048444;28;20232;-32
2022/10/17 09:22:15;;;;;;;10.45;4.85;;;20.30;99.90;;;;;;5048365;28;20192;-32
2022/10/17 09:24:54;;;;;;;10.32;4.68;;;20.30;99.90;;;;;;5048795;28;20193;-32
2022/10/17 09:28:03;;;;;;;8.95;5.00;;;20.30;99.90;;;;;;5048648;28;20299;-32
2022/10/17 09:30:43;;;;;;;9.43;5.40;;;20.30;99.90;;;;;;5045633;28;20196;-32
2022/10/17 09:33:24;;;;;;;10.85;5.57;;;20.30;99.90;;;;;;5044855;28;20200;-32
2022/10/17 09:36:23;;;;;;;12.43;5.50;;;20.30;99.90;;;;;;5049006;28;20216;-32
2022/10/17 09:39:16;;;;;;;9.32;5.93;;;20.30;99.90;;;;;;5047951;28;20211;-32
2022/10/17 09:41:50;;;;;;;13.68;6.15;;;20.30;99.90;;;;;;5048092;28;20319;-32
2022/10/17 09:44:42;;;;;;;14.45;6.00;;;20.20;99.90;;;;;;5046519;28;20277;-33
2022/10/17 09:47:22;;;;;;;13.80;5.93;;;20.30;99.90;;;;;;5043685;28;20212;-32
2022/10/17 09:49:50;;;;;;;12.75;5.93;;;20.30;99.90;;;;;;5047987;28;20192;-33
2022/10/17 09:52:32;;;;;;;10.25;6.28;;;20.30;99.90;;;;;;5046496;28;20258;-33
2022/10/17 09:55:14;;;;;;;10.07;5.30;;;20.30;99.90;;;;;;5047821;28;20180;-33
2022/10/17 09:58:01;;;;;;;10.93;5.47;;;20.30;99.90;;;;;;5047714;28;20278;-33
2022/10/17 10:00:41;;;;;;;8.30;5.32;;;20.30;99.90;;;;;;5062486;28;20208;-33
2022/10/17 10:03:08;;;;;;;15.02;5.90;;;20.30;99.90;;;;;;5047736;28;20611;-32
2022/10/17 10:05:35;;;;;;;9.57;5.40;;;20.30;99.90;;;;;;5047400;28;20697;-32
2022/10/17 10:08:10;;;;;;;7.03;5.18;;;20.40;99.90;;;;;;5047578;28;20196;-33
2022/10/17 10:10:41;;;;;;;15.57;5.30;;;20.40;99.90;;;;;;5047337;28;20196;-32
2022/10/17 10:13:12;;;;;;;7.78;4.90;;;20.40;99.90;;;;;;5047697;28;20250;-32
2022/10/17 10:15:48;;;;;;;8.88;5.63;;;20.40;99.90;;;;;;5047268;28;20218;-32
2022/10/17 10:18:32;;;;;;;6.47;4.95;;;20.50;99.90;;;;;;5047287;28;21033;-32
2022/10/17 10:21:05;;;;;;;8.65;4.72;;;20.50;99.90;;;;;;5045828;28;20239;-32
2022/10/17 10:23:38;;;;;;;7.20;5.13;;;20.50;99.90;;;;;;5047241;28;20208;-32
2022/10/17 10:26:12;;;;;;;7.30;4.47;;;20.60;99.90;;;;;;5047572;28;20238;-32
2022/10/17 10:28:40;;;;;;;8.52;4.40;;;20.60;99.90;;;;;;5047060;28;20204;-32
2022/10/17 10:31:09;;;;;;;6.90;4.80;;;20.60;99.90;;;;;;5047593;28;20303;-32
2022/10/17 10:33:41;;;;;;;7.13;4.32;;;20.70;99.90;;;;;;5047524;28;20274;-32
2022/10/17 10:36:15;;;;;;;8.23;4.72;;;20.70;99.90;;;;;;5047438;28;20671;-32
2022/10/17 10:38:53;;;;;;;12.57;5.30;;;20.70;99.90;;;;;;5047623;28;20231;-32
2022/10/17 10:41:26;;;;;;;7.53;4.75;;;20.70;99.90;;;;;;5062372;28;20204;-32
2022/10/17 10:43:55;;;;;;;8.20;4.60;;;20.80;99.90;;;;;;5047203;28;20196;-32
2022/10/17 10:46:27;;;;;;;8.82;4.70;;;20.80;99.90;;;;;;5047049;28;20283;-32
2022/10/17 10:48:59;;;;;;;7.85;5.20;;;20.80;99.90;;;;;;5047042;28;20686;-32
2022/10/17 10:51:42;;;;;;;9.05;5.00;;;20.80;99.90;;;;;;5047095;28;20697;-31
2022/10/17 10:54:20;;;;;;;11.38;5.50;;;20.90;99.90;;;;;;5045975;28;20185;-32
2022/10/17 10:56:56;;;;;;;8.95;4.97;;;20.90;99.90;;;;;;5047232;28;20244;-31
2022/10/17 10:59:32;;;;;;;7.28;5.40;;;20.90;99.90;;;;;;5047617;28;20211;-32
2022/10/17 11:02:03;;;;;;;9.93;5.68;;;20.90;99.90;;;;;;5047036;28;20184;-32
2022/10/17 11:04:58;;;;;;;7.15;5.65;;;20.90;99.90;;;;;;5046991;28;20299;-32
2022/10/17 11:07:35;;;;;;;9.82;5.75;;;20.90;99.90;;;;;;5047312;28;20259;-31
2022/10/17 11:10:24;;;;;;;10.13;5.97;;;20.90;99.90;;;;;;5047830;28;20196;-32
2022/10/17 11:12:54;;;;;;;8.10;5.63;;;20.90;99.90;;;;;;5050712;28;20201;-32
2022/10/17 11:15:30;;;;;;;7.90;5.70;;;20.90;99.90;;;;;;5048993;28;20224;-31
2022/10/17 11:18:06;;;;;;;7.97;5.60;;;20.90;99.90;;;;;;5050543;28;20242;-32
2022/10/17 11:20:57;;;;;;;13.38;6.57;;;20.90;99.90;;;;;;5050734;28;20218;-32
2022/10/17 11:23:38;;;;;;;8.30;5.80;;;21.00;99.90;;;;;;5050773;28;20207;-32
2022/10/17 11:26:10;;;;;;;12.73;5.45;;;21.00;99.90;;;;;;5050537;28;20230;-32
2022/10/17 11:28:38;;;;;;;14.07;5.38;;;20.90;99.90;;;;;;5050594;28;20192;-32
2022/10/17 11:31:12;;;;;;;9.25;4.90;;;21.00;99.90;;;;;;5050204;28;20232;-32
2022/10/17 11:33:53;;;;;;;9.55;5.22;;;21.00;99.90;;;;;;5050217;28;20208;-32
2022/10/17 11:36:26;;;;;;;7.55;5.03;;;21.00;99.90;;;;;;5051100;28;20547;-32
2022/10/17 11:39:09;;;;;;;6.18;4.63;;;21.00;99.90;;;;;;5050570;28;20260;-33
2022/10/17 11:41:50;;;;;;;5.80;4.10;;;21.00;99.90;;;;;;5049912;28;20216;-33
2022/10/17 11:44:34;;;;;;;5.53;4.35;;;21.00;99.90;;;;;;5049829;28;20181;-32
2022/10/17 11:47:28;;;;;;;8.18;4.40;;;21.00;99.90;;;;;;5050117;28;20213;-32
2022/10/17 11:50:28;;;;;;;8.18;4.25;;;21.00;99.90;;;;;;5050075;28;20291;-32
2022/10/17 11:53:18;;;;;;;5.35;3.72;;;21.00;99.90;;;;;;5062361;28;20208;-33
2022/10/17 11:55:46;;;;;;;5.78;3.92;;;21.00;99.90;;;;;;5049784;28;20723;-32
2022/10/17 11:58:30;;;;;;;6.22;4.00;;;21.10;99.90;;;;;;5049331;28;20222;-32
2022/10/17 12:01:22;;;;;;;5.75;3.63;;;21.10;99.90;;;;;;5049769;28;20184;-32
2022/10/17 12:04:12;;;;;;;8.80;3.80;;;21.10;99.90;;;;;;5049996;28;20196;-32
2022/10/17 12:06:59;;;;;;;6.45;3.55;;;21.10;99.90;;;;;;5048285;28;20276;-32
2022/10/17 12:09:47;;;;;;;9.13;3.92;;;21.10;99.90;;;;;;5048521;28;20636;-32
2022/10/17 12:12:29;;;;;;;5.30;3.88;;;21.10;99.90;;;;;;5049647;28;20193;-32
2022/10/17 12:15:12;;;;;;;7.38;3.70;;;21.20;99.90;;;;;;5049565;28;20216;-32
2022/10/17 12:17:44;;;;;;;8.48;3.75;;;21.20;99.90;;;;;;5049417;28;20212;-32
2022/10/17 12:20:34;;;;;;;5.88;3.95;;;21.20;99.90;;;;;;5048093;28;20222;-32
2022/10/17 12:23:04;;;;;;;7.25;3.90;;;21.20;99.90;;;;;;5049384;28;20193;-32
2022/10/17 12:25:37;;;;;;;6.88;3.83;;;21.20;99.90;;;;;;5049357;28;20327;-32
2022/10/17 12:28:25;;;;;;;6.78;4.15;;;21.20;99.90;;;;;;5049905;28;20634;-32
2022/10/17 12:30:59;;;;;;;5.35;3.75;;;21.20;99.90;;;;;;5049309;28;20255;-32
2022/10/17 12:33:50;;;;;;;6.93;3.87;;;21.20;99.90;;;;;;5049164;28;20207;-33
2022/10/17 12:36:29;;;;;;;4.57;3.50;;;21.20;99.90;;;;;;5049146;28;20293;-31
2022/10/17 12:39:14;;;;;;;7.20;4.00;;;21.10;99.90;;;;;;5048757;28;20206;-32
2022/10/17 12:41:45;;;;;;;6.90;4.20;;;21.10;99.90;;;;;;5047652;28;20325;-32
2022/10/17 12:44:12;;;;;;;8.50;4.00;;;21.20;99.90;;;;;;5047638;28;20534;-32
2022/10/17 12:46:48;;;;;;;11.63;4.90;;;21.20;99.90;;;;;;5049030;28;20231;-32
2022/10/17 12:49:36;;;;;;;8.13;4.45;;;21.20;99.90;;;;;;5048938;28;20191;-32
2022/10/17 12:52:28;;;;;;;10.13;4.50;;;21.20;99.90;;;;;;5048970;28;20208;-32
2022/10/17 12:54:58;;;;;;;10.03;5.20;;;21.30;99.90;;;;;;5047762;28;20284;-32
2022/10/17 12:57:54;;;;;;;25.08;7.45;;;21.30;99.90;;;;;;5049081;28;20599;-32
2022/10/17 13:00:21;;;;;;;26.13;8.07;;;21.30;99.90;;;;;;5048741;28;20607;-32
2022/10/17 13:02:52;;;;;;;16.67;4.97;;;21.30;99.90;;;;;;5047404;28;20723;-32
2022/10/17 13:05:28;;;;;;;9.95;4.53;;;21.30;99.90;;;;;;5047253;28;20275;-32
2022/10/17 13:07:58;;;;;;;8.85;4.30;;;21.40;99.90;;;;;;5048368;28;20260;-32
2022/10/17 13:10:28;;;;;;;10.50;5.03;;;21.40;99.90;;;;;;5048682;28;20250;-31
2022/10/17 13:13:05;;;;;;;6.53;4.53;;;21.40;99.90;;;;;;5048561;28;20200;-32
2022/10/17 13:15:33;;;;;;;5.00;3.85;;;21.40;99.90;;;;;;5048419;28;20291;-32
2022/10/17 13:18:01;;;;;;;6.05;4.50;;;21.40;99.90;;;;;;5046820;28;20613;-32
2022/10/17 13:20:30;;;;;;;8.70;4.75;;;21.40;99.90;;;;;;5048308;28;20200;-32
2022/10/17 13:22:58;;;;;;;6.82;4.85;;;21.40;99.90;;;;;;5063247;28;20568;-32